AFA189 RCFN-RCFN

Flight info

Callsign AFA189
Flight time 0h 4m
Altitude 1100
Route DCT ZN DCT
Aircraft DA40/L-SBDFGRY/LB2

Departure

Time 2026-04-19 05:40
Airport Taitung Airport (RCFN)

Arrival

Time 2026-04-19 05:45
Airport Taitung Airport (RCFN)
Time Latitude Longitude Altitude Speed Heading
2026-04-19 05:13 22.75939 121.10328 140 ft 0 kts 39°
2026-04-19 05:28 22.75944 121.10347 140 ft 5 kts 112°
2026-04-19 05:28 22.75915 121.10371 140 ft 7 kts 182°
2026-04-19 05:29 22.75875 121.10344 141 ft 9 kts 218°
2026-04-19 05:29 22.75807 121.10289 141 ft 13 kts 224°
2026-04-19 05:29 22.75729 121.10216 141 ft 16 kts 219°
2026-04-19 05:29 22.75643 121.10144 142 ft 16 kts 219°
2026-04-19 05:30 22.75551 121.10063 140 ft 18 kts 226°
2026-04-19 05:30 22.75449 121.09974 140 ft 19 kts 215°
2026-04-19 05:30 22.75351 121.09891 141 ft 15 kts 213°
2026-04-19 05:30 22.75260 121.09812 142 ft 16 kts 219°
2026-04-19 05:31 22.75167 121.09739 145 ft 17 kts 207°
2026-04-19 05:31 22.75109 121.09667 147 ft 14 kts 218°
2026-04-19 05:31 22.75027 121.09608 147 ft 14 kts 220°
2026-04-19 05:31 22.74945 121.09541 149 ft 15 kts 212°
2026-04-19 05:32 22.74868 121.09471 151 ft 15 kts 218°
2026-04-19 05:32 22.74782 121.09397 150 ft 17 kts 220°
2026-04-19 05:32 22.74703 121.09368 149 ft 4 kts 138°
2026-04-19 05:32 22.74702 121.09369 149 ft 0 kts 140°
2026-04-19 05:38 22.74673 121.09407 148 ft 12 kts 126°
2026-04-19 05:38 22.74663 121.09450 147 ft 2 kts 58°
2026-04-19 05:38 22.74668 121.09455 147 ft 0 kts 39°
2026-04-19 05:39 22.74679 121.09465 147 ft 15 kts 38°
2026-04-19 05:39 22.74893 121.09652 147 ft 62 kts 40°
2026-04-19 05:39 22.75253 121.09959 296 ft 69 kts 37°
2026-04-19 05:39 22.75371 121.10049 358 ft 70 kts 36°
2026-04-19 05:40 22.75575 121.10197 456 ft 70 kts 38°
2026-04-19 05:40 22.75964 121.10506 717 ft 68 kts 44°
2026-04-19 05:40 22.76360 121.10840 902 ft 73 kts 43°
2026-04-19 05:40 22.76755 121.11169 1070 ft 79 kts 35°
2026-04-19 05:41 22.77297 121.10940 1147 ft 102 kts 309°
2026-04-19 05:41 22.77521 121.10168 1112 ft 116 kts 260°
2026-04-19 05:41 22.77051 121.09493 1108 ft 115 kts 212°
2026-04-19 05:41 22.76415 121.08959 1120 ft 116 kts 214°
2026-04-19 05:42 22.75790 121.08420 1118 ft 114 kts 218°
2026-04-19 05:42 22.75180 121.07883 1103 ft 111 kts 215°
2026-04-19 05:42 22.74589 121.07353 1106 ft 111 kts 217°
2026-04-19 05:42 22.73993 121.06820 1063 ft 109 kts 213°
2026-04-19 05:43 22.73338 121.06766 931 ft 93 kts 138°
2026-04-19 05:43 22.72966 121.07249 845 ft 78 kts 116°
2026-04-19 05:43 22.72746 121.07756 695 ft 70 kts 86°
2026-04-19 05:43 22.73084 121.08100 585 ft 72 kts 34°
2026-04-19 05:44 22.73483 121.08432 489 ft 74 kts 44°
2026-04-19 05:44 22.73879 121.08774 405 ft 73 kts 43°
2026-04-19 05:44 22.74280 121.09118 297 ft 74 kts 41°
2026-04-19 05:44 22.74683 121.09468 190 ft 74 kts 41°
2026-04-19 05:45 22.75021 121.09761 146 ft 47 kts 38°
2026-04-19 05:45 22.75298 121.10000 149 ft 65 kts 39°
2026-04-19 05:45 22.75675 121.10318 350 ft 68 kts 42°
2026-04-19 05:45 22.76044 121.10622 599 ft 66 kts 41°
2026-04-19 05:46 22.76440 121.10930 782 ft 72 kts 41°
2026-04-19 05:46 22.76864 121.11192 986 ft 75 kts 14°
2026-04-19 05:46 22.77339 121.10844 1167 ft 93 kts 315°
2026-04-19 05:46 22.77684 121.10167 1140 ft 113 kts 276°
2026-04-19 05:47 22.77295 121.09465 1137 ft 113 kts 210°
2026-04-19 05:47 22.76666 121.08939 1159 ft 114 kts 215°
2026-04-19 05:47 22.76029 121.08397 1121 ft 116 kts 216°
2026-04-19 05:47 22.75419 121.07862 1158 ft 109 kts 215°
2026-04-19 05:48 22.74827 121.07351 1139 ft 111 kts 216°
2026-04-19 05:48 22.74234 121.06809 1095 ft 112 kts 217°
2026-04-19 05:48 22.73598 121.06440 1040 ft 97 kts 172°
2026-04-19 05:48 22.73104 121.06788 899 ft 83 kts 117°
2026-04-19 05:49 22.72833 121.07277 805 ft 74 kts 111°
2026-04-19 05:49 22.72672 121.07798 708 ft 68 kts 77°
2026-04-19 05:49 22.73062 121.08069 640 ft 71 kts 31°
2026-04-19 05:49 22.73449 121.08400 502 ft 71 kts 41°
2026-04-19 05:50 22.73839 121.08735 395 ft 72 kts 41°
2026-04-19 05:50 22.74229 121.09075 307 ft 72 kts 41°
2026-04-19 05:50 22.74625 121.09417 209 ft 73 kts 41°
2026-04-19 05:50 22.74978 121.09724 147 ft 51 kts 39°
2026-04-19 05:51 22.75257 121.09965 150 ft 64 kts 39°
2026-04-19 05:51 22.75630 121.10293 326 ft 70 kts 42°
2026-04-19 05:51 22.76007 121.10619 575 ft 67 kts 41°
2026-04-19 05:51 22.76396 121.10947 751 ft 74 kts 41°
2026-04-19 05:52 22.76807 121.11274 923 ft 79 kts 35°
2026-04-19 05:52 22.77350 121.11143 1081 ft 102 kts 313°
2026-04-19 05:52 22.77745 121.10461 1121 ft 110 kts 306°
2026-04-19 05:52 22.77707 121.09654 1122 ft 117 kts 230°
2026-04-19 05:53 22.77050 121.09139 1090 ft 119 kts 213°
2026-04-19 05:53 22.76361 121.08612 1050 ft 121 kts 213°
2026-04-19 05:53 22.75689 121.08082 1042 ft 117 kts 216°
2026-04-19 05:53 22.75278 121.07732 1060 ft 111 kts 216°
2026-04-19 05:54 22.74476 121.07039 1042 ft 111 kts 216°
2026-04-19 05:54 22.73866 121.06526 1006 ft 107 kts 203°
2026-04-19 05:54 22.73411 121.06460 921 ft 98 kts 161°
2026-04-19 05:54 22.72948 121.06898 837 ft 80 kts 118°
2026-04-19 05:55 22.72757 121.07601 685 ft 73 kts 65°
2026-04-19 05:55 22.72941 121.07901 641 ft 73 kts 51°
2026-04-19 05:55 22.73311 121.08274 550 ft 72 kts 41°
2026-04-19 05:55 22.73689 121.08609 439 ft 70 kts 39°
2026-04-19 05:56 22.74080 121.08947 336 ft 75 kts 40°
2026-04-19 05:56 22.74487 121.09298 243 ft 74 kts 42°
2026-04-19 05:56 22.74881 121.09641 152 ft 64 kts 40°
2026-04-19 05:56 22.75154 121.09879 142 ft 41 kts 38°
2026-04-19 05:57 22.75462 121.10141 166 ft 71 kts 39°
2026-04-19 05:57 22.75852 121.10474 382 ft 70 kts 39°
2026-04-19 05:57 22.76220 121.10778 639 ft 68 kts 40°
2026-04-19 05:57 22.76622 121.11093 824 ft 71 kts 38°
2026-04-19 05:58 22.77081 121.11293 1008 ft 81 kts 359°
2026-04-19 05:58 22.77582 121.10933 1147 ft 95 kts 327°
2026-04-19 05:58 22.77958 121.10303 1121 ft 115 kts 275°
2026-04-19 05:58 22.77523 121.09591 1101 ft 118 kts 212°
2026-04-19 05:59 22.76858 121.09074 1121 ft 117 kts 214°
2026-04-19 05:59 22.76209 121.08539 1123 ft 118 kts 216°
2026-04-19 05:59 22.75576 121.08009 1148 ft 111 kts 216°
2026-04-19 05:59 22.74974 121.07506 1156 ft 109 kts 216°
2026-04-19 06:00 22.74366 121.06987 1125 ft 111 kts 214°
2026-04-19 06:00 22.73709 121.06656 1084 ft 97 kts 173°
2026-04-19 06:00 22.73192 121.07005 957 ft 85 kts 112°
2026-04-19 06:00 22.72951 121.07539 841 ft 75 kts 104°
2026-04-19 06:01 22.73096 121.08056 637 ft 75 kts 49°
2026-04-19 06:01 22.73477 121.08421 463 ft 73 kts 40°
2026-04-19 06:01 22.73863 121.08747 415 ft 71 kts 39°
2026-04-19 06:01 22.74264 121.09102 302 ft 75 kts 42°
2026-04-19 06:02 22.74667 121.09455 200 ft 74 kts 40°
2026-04-19 06:02 22.75020 121.09759 146 ft 50 kts 40°
2026-04-19 06:02 22.75316 121.10014 151 ft 69 kts 39°
2026-04-19 06:02 22.75700 121.10351 357 ft 71 kts 43°
2026-04-19 06:03 22.76078 121.10691 587 ft 70 kts 41°
2026-04-19 06:03 22.76488 121.11028 751 ft 75 kts 41°
2026-04-19 06:03 22.76924 121.11318 973 ft 79 kts 12°
2026-04-19 06:03 22.77409 121.10980 1116 ft 99 kts 320°
2026-04-19 06:04 22.77757 121.10311 1161 ft 108 kts 274°
2026-04-19 06:04 22.77374 121.09609 1086 ft 116 kts 216°
2026-04-19 06:04 22.76757 121.09065 1121 ft 113 kts 216°
2026-04-19 06:04 22.76152 121.08505 1087 ft 115 kts 217°
2026-04-19 06:05 22.75524 121.07965 1098 ft 112 kts 217°
2026-04-19 06:05 22.74920 121.07449 1094 ft 110 kts 215°
2026-04-19 06:05 22.74318 121.06937 1092 ft 109 kts 216°
2026-04-19 06:05 22.73711 121.06509 1076 ft 98 kts 187°
2026-04-19 06:06 22.73147 121.06741 950 ft 86 kts 120°
2026-04-19 06:06 22.72850 121.07245 887 ft 75 kts 112°
2026-04-19 06:06 22.72887 121.07763 695 ft 75 kts 59°
2026-04-19 06:06 22.73232 121.08182 559 ft 75 kts 44°
2026-04-19 06:07 22.73622 121.08543 465 ft 72 kts 40°
2026-04-19 06:07 22.74020 121.08890 367 ft 74 kts 40°
2026-04-19 06:07 22.74425 121.09245 254 ft 74 kts 42°
2026-04-19 06:07 22.74825 121.09591 157 ft 68 kts 41°
2026-04-19 06:08 22.75114 121.09844 143 ft 42 kts 38°
2026-04-19 06:08 22.75438 121.10113 171 ft 73 kts 39°
2026-04-19 06:08 22.75819 121.10456 411 ft 69 kts 42°
2026-04-19 06:08 22.76189 121.10771 640 ft 69 kts 43°
2026-04-19 06:09 22.76578 121.11094 824 ft 70 kts 40°
2026-04-19 06:09 22.77052 121.11219 1018 ft 80 kts 344°
2026-04-19 06:09 22.77537 121.10795 1067 ft 98 kts 327°
2026-04-19 06:09 22.77722 121.10084 1055 ft 115 kts 246°
2026-04-19 06:10 22.77152 121.09497 1053 ft 115 kts 214°
2026-04-19 06:10 22.76526 121.08976 1073 ft 112 kts 214°
2026-04-19 06:10 22.75922 121.08434 1093 ft 114 kts 219°
2026-04-19 06:10 22.75305 121.07999 1032 ft 98 kts 184°
2026-04-19 06:11 22.74766 121.08274 794 ft 83 kts 117°
2026-04-19 06:11 22.74462 121.08821 513 ft 84 kts 106°
2026-04-19 06:11 22.74593 121.09385 233 ft 82 kts 44°
2026-04-19 06:12 22.75205 121.09921 142 ft 35 kts 38°
2026-04-19 06:12 22.75372 121.10065 141 ft 28 kts 39°
2026-04-19 06:12 22.75517 121.10190 143 ft 25 kts 39°
2026-04-19 06:12 22.75646 121.10302 143 ft 24 kts 38°
2026-04-19 06:13 22.75758 121.10396 143 ft 15 kts 38°
2026-04-19 06:13 22.75815 121.10394 142 ft 6 kts 320°
2026-04-19 06:13 22.75848 121.10354 141 ft 9 kts 322°
2026-04-19 06:13 22.75882 121.10350 141 ft 3 kts 32°
2026-04-19 06:14 22.75912 121.10370 140 ft 6 kts
2026-04-19 06:14 22.75943 121.10349 140 ft 8 kts 306°
2026-04-19 06:14 22.75948 121.10320 140 ft 2 kts 232°
2026-04-19 06:14 22.75948 121.10303 141 ft 2 kts 299°
2026-04-19 06:15 22.75952 121.10301 141 ft 0 kts 38°